createdAt,value
2017-12-06T00:00:29.102Z,1023.67
2017-12-06T00:01:29.715Z,1023.69
2017-12-06T00:02:30.326Z,1023.68
2017-12-06T00:03:30.939Z,1023.66
2017-12-06T00:04:31.530Z,1023.66
2017-12-06T00:05:32.176Z,1023.65
2017-12-06T00:06:32.710Z,1023.64
2017-12-06T00:07:33.309Z,1023.69
2017-12-06T00:08:33.898Z,1023.65
2017-12-06T00:09:34.506Z,1023.63
2017-12-06T00:10:35.100Z,1023.62
2017-12-06T00:11:35.684Z,1023.64
2017-12-06T00:12:36.301Z,1023.60
2017-12-06T00:13:36.868Z,1023.62
2017-12-06T00:14:37.475Z,1023.60
2017-12-06T00:15:38.090Z,1023.54
2017-12-06T00:16:38.694Z,1023.55
2017-12-06T00:17:39.292Z,1023.53
2017-12-06T00:18:39.902Z,1023.51
2017-12-06T00:19:40.498Z,1023.47
2017-12-06T00:20:41.108Z,1023.53
2017-12-06T00:21:41.707Z,1023.52
2017-12-06T00:22:42.313Z,1023.47
2017-12-06T00:23:42.905Z,1023.54
2017-12-06T00:24:43.509Z,1023.51
2017-12-06T00:25:44.113Z,1023.48
2017-12-06T00:26:44.728Z,1023.52
2017-12-06T00:27:45.320Z,1023.53
2017-12-06T00:28:45.925Z,1023.48
2017-12-06T00:29:46.512Z,1023.45
2017-12-06T00:30:47.117Z,1023.46
2017-12-06T00:31:47.714Z,1023.46
2017-12-06T00:32:48.341Z,1023.36
2017-12-06T00:33:48.892Z,1023.38
2017-12-06T00:34:49.491Z,1023.36
2017-12-06T00:35:50.106Z,1023.39
2017-12-06T00:36:50.716Z,1023.40
2017-12-06T00:37:51.324Z,1023.37
2017-12-06T00:38:51.926Z,1023.40
2017-12-06T00:39:52.541Z,1023.44
2017-12-06T00:40:53.154Z,1023.45
2017-12-06T00:41:53.749Z,1023.38
2017-12-06T00:42:54.343Z,1023.40
2017-12-06T00:43:54.945Z,1023.37
2017-12-06T00:44:55.532Z,1023.29
2017-12-06T00:45:56.139Z,1023.35
2017-12-06T00:46:56.744Z,1023.35
2017-12-06T00:47:57.342Z,1023.31
2017-12-06T00:48:57.949Z,1023.36
2017-12-06T00:49:58.540Z,1023.31
2017-12-06T00:50:59.136Z,1023.36
2017-12-06T00:51:59.733Z,1023.34
2017-12-06T00:53:00.333Z,1023.30
2017-12-06T00:54:00.942Z,1023.32
2017-12-06T00:55:01.540Z,1023.32
2017-12-06T00:56:02.133Z,1023.32
2017-12-06T00:57:02.734Z,1023.34
2017-12-06T00:58:03.334Z,1023.32
2017-12-06T00:59:03.981Z,1023.30
2017-12-06T01:00:48.757Z,1023.35
2017-12-06T01:01:49.360Z,1023.34
2017-12-06T01:02:49.964Z,1023.35
2017-12-06T01:03:50.559Z,1023.37
2017-12-06T01:04:51.169Z,1023.35
2017-12-06T01:05:51.761Z,1023.33
2017-12-06T01:06:52.356Z,1023.33
2017-12-06T01:07:52.951Z,1023.29
2017-12-06T01:08:53.554Z,1023.34
2017-12-06T01:09:54.150Z,1023.35
2017-12-06T01:10:54.743Z,1023.34
2017-12-06T01:11:55.369Z,1023.32
2017-12-06T01:12:55.962Z,1023.35
2017-12-06T01:13:56.563Z,1023.39
2017-12-06T01:14:57.166Z,1023.43
2017-12-06T01:15:57.762Z,1023.34
2017-12-06T01:16:58.374Z,1023.40
2017-12-06T01:17:58.980Z,1023.33
2017-12-06T01:18:59.571Z,1023.31
2017-12-06T01:20:00.169Z,1023.28
2017-12-06T01:21:00.767Z,1023.28
2017-12-06T01:22:01.373Z,1023.28
2017-12-06T01:23:01.986Z,1023.32
2017-12-06T01:24:02.579Z,1023.29
2017-12-06T01:25:03.183Z,1023.29
2017-12-06T01:26:03.786Z,1023.32
2017-12-06T01:27:04.387Z,1023.27
2017-12-06T01:28:04.997Z,1023.28
2017-12-06T01:29:05.609Z,1023.30
2017-12-06T01:30:06.201Z,1023.24
2017-12-06T01:31:06.806Z,1023.30
2017-12-06T01:32:07.400Z,1023.27
2017-12-06T01:33:08.001Z,1023.26
2017-12-06T01:34:08.611Z,1023.23
2017-12-06T01:35:09.212Z,1023.23
2017-12-06T01:36:09.810Z,1023.26
2017-12-06T01:37:10.423Z,1023.22
2017-12-06T01:38:11.012Z,1023.20
2017-12-06T01:39:11.614Z,1023.21
2017-12-06T01:40:12.224Z,1023.23
2017-12-06T01:41:12.839Z,1023.23
2017-12-06T01:42:13.442Z,1023.26
2017-12-06T01:43:14.041Z,1023.30
2017-12-06T01:44:14.650Z,1023.22
2017-12-06T01:45:15.262Z,1023.25
2017-12-06T01:46:15.874Z,1023.18
2017-12-06T01:47:16.488Z,1023.22
2017-12-06T01:48:17.086Z,1023.21
2017-12-06T01:49:17.699Z,1023.24
2017-12-06T01:50:18.311Z,1023.19
2017-12-06T01:51:18.918Z,1023.18
2017-12-06T01:52:19.515Z,1023.17
2017-12-06T01:53:20.112Z,1023.19
2017-12-06T01:54:20.720Z,1023.19
2017-12-06T01:55:21.322Z,1023.22
2017-12-06T01:56:21.919Z,1023.18
2017-12-06T01:57:22.511Z,1023.13
2017-12-06T01:58:23.114Z,1023.12
2017-12-06T01:59:23.705Z,1023.09
2017-12-06T02:00:24.297Z,1023.07
2017-12-06T02:01:24.899Z,1022.92
2017-12-06T02:02:25.507Z,1023.03
2017-12-06T02:03:26.106Z,1023.05
2017-12-06T02:04:26.711Z,1023.00
2017-12-06T02:05:27.317Z,1023.03
2017-12-06T02:06:27.920Z,1023.03
2017-12-06T02:07:28.515Z,1022.99
2017-12-06T02:08:29.112Z,1023.01
2017-12-06T02:09:29.730Z,1023.08
2017-12-06T02:10:30.333Z,1023.02
2017-12-06T02:11:30.940Z,1023.05
2017-12-06T02:12:31.552Z,1023.04
2017-12-06T02:13:32.175Z,1023.06
2017-12-06T02:14:32.763Z,1023.03
2017-12-06T02:15:33.354Z,1022.99
2017-12-06T02:16:33.964Z,1023.01
2017-12-06T02:17:34.565Z,1022.99
2017-12-06T02:18:35.169Z,1022.99
2017-12-06T02:19:35.791Z,1022.97
2017-12-06T02:20:36.393Z,1023.00
2017-12-06T02:21:36.997Z,1022.97
2017-12-06T02:22:37.604Z,1023.01
2017-12-06T02:23:38.197Z,1023.03
2017-12-06T02:24:38.795Z,1023.00
2017-12-06T02:25:39.400Z,1023.00
2017-12-06T02:26:40.007Z,1023.03
2017-12-06T02:27:40.601Z,1023.01
2017-12-06T02:28:41.207Z,1023.02
2017-12-06T02:29:41.800Z,1023.03
2017-12-06T02:30:42.404Z,1022.96
2017-12-06T02:31:43.007Z,1022.91
2017-12-06T02:32:43.602Z,1022.93
2017-12-06T02:33:44.213Z,1022.98
2017-12-06T02:34:44.828Z,1022.94
2017-12-06T02:35:45.437Z,1022.94
2017-12-06T02:36:46.034Z,1022.94
2017-12-06T02:37:46.640Z,1022.99
2017-12-06T02:38:47.253Z,1022.91
2017-12-06T02:39:47.863Z,1022.96
2017-12-06T02:40:48.472Z,1022.95
2017-12-06T02:41:49.077Z,1022.95
2017-12-06T02:42:49.687Z,1022.96
2017-12-06T02:43:50.294Z,1022.96
2017-12-06T02:44:50.895Z,1022.98
2017-12-06T02:45:51.484Z,1022.92
2017-12-06T02:46:52.084Z,1022.87
2017-12-06T02:47:52.680Z,1022.98
2017-12-06T02:48:53.280Z,1022.95
2017-12-06T02:49:53.868Z,1022.94
2017-12-06T02:50:54.471Z,1022.95
2017-12-06T02:51:55.086Z,1022.92
2017-12-06T02:52:55.681Z,1022.97
2017-12-06T02:53:56.276Z,1022.97
2017-12-06T02:54:56.885Z,1022.97
2017-12-06T02:55:57.475Z,1022.95
2017-12-06T02:56:58.072Z,1022.97
2017-12-06T02:57:58.680Z,1022.92
2017-12-06T02:58:59.281Z,1022.92
2017-12-06T02:59:59.880Z,1022.88
2017-12-06T03:01:00.483Z,1022.86
2017-12-06T03:02:01.082Z,1022.82
2017-12-06T03:03:01.697Z,1022.81
2017-12-06T03:04:02.296Z,1022.77
2017-12-06T03:05:02.891Z,1022.75
2017-12-06T03:06:03.485Z,1022.76
2017-12-06T03:07:04.084Z,1022.77
2017-12-06T03:08:04.673Z,1022.82
2017-12-06T03:09:05.278Z,1022.84
2017-12-06T03:10:05.884Z,1022.77
2017-12-06T03:11:06.480Z,1022.76
2017-12-06T03:12:07.100Z,1022.76
2017-12-06T03:13:07.690Z,1022.80
2017-12-06T03:14:08.294Z,1022.69
2017-12-06T03:15:08.884Z,1022.74
2017-12-06T03:16:09.486Z,1022.69
2017-12-06T03:17:10.090Z,1022.71
2017-12-06T03:18:10.707Z,1022.68
2017-12-06T03:19:11.316Z,1022.74
2017-12-06T03:20:11.927Z,1022.75
2017-12-06T03:21:12.543Z,1022.74
2017-12-06T03:22:13.154Z,1022.78
2017-12-06T03:23:13.748Z,1022.69
2017-12-06T03:24:14.341Z,1022.69
2017-12-06T03:25:14.941Z,1022.69
2017-12-06T03:26:15.554Z,1022.60
2017-12-06T03:27:16.143Z,1022.66
2017-12-06T03:28:16.744Z,1022.69
2017-12-06T03:29:17.361Z,1022.72
2017-12-06T03:30:17.967Z,1022.67
2017-12-06T03:31:18.567Z,1022.70
2017-12-06T03:32:19.170Z,1022.76
2017-12-06T03:33:19.767Z,1022.70
2017-12-06T03:34:20.382Z,1022.72
2017-12-06T03:35:20.990Z,1022.71
2017-12-06T03:36:21.599Z,1022.71
2017-12-06T03:37:22.182Z,1022.71
2017-12-06T03:38:22.787Z,1022.70
2017-12-06T03:39:23.394Z,1022.62
2017-12-06T03:40:24.003Z,1022.67
2017-12-06T03:41:24.602Z,1022.60
2017-12-06T03:42:25.219Z,1022.57
2017-12-06T03:43:25.829Z,1022.59
2017-12-06T03:44:26.437Z,1022.58
2017-12-06T03:45:27.043Z,1022.56
2017-12-06T03:46:27.653Z,1022.59
2017-12-06T03:47:28.257Z,1022.51
2017-12-06T03:48:28.869Z,1022.53
2017-12-06T03:49:29.456Z,1022.54
2017-12-06T03:50:30.063Z,1022.51
2017-12-06T03:51:30.668Z,1022.49
2017-12-06T03:52:31.279Z,1022.49
2017-12-06T03:53:31.890Z,1022.52
2017-12-06T03:54:32.487Z,1022.43
2017-12-06T03:55:33.102Z,1022.49
2017-12-06T03:56:33.691Z,1022.47
2017-12-06T03:57:34.297Z,1022.46
2017-12-06T03:58:34.903Z,1022.41
2017-12-06T03:59:35.493Z,1022.46
2017-12-06T04:00:36.083Z,1022.51
2017-12-06T04:01:36.683Z,1022.47
2017-12-06T04:02:37.287Z,1022.46
2017-12-06T04:03:37.878Z,1022.38
2017-12-06T04:04:38.487Z,1022.34
2017-12-06T04:05:39.095Z,1022.40
2017-12-06T04:06:39.698Z,1022.41
2017-12-06T04:07:40.308Z,1022.38
2017-12-06T04:08:40.912Z,1022.40
2017-12-06T04:09:41.529Z,1022.38
2017-12-06T04:10:42.129Z,1022.41
2017-12-06T04:11:42.728Z,1022.37
2017-12-06T04:12:43.318Z,1022.37
2017-12-06T04:13:43.915Z,1022.36
2017-12-06T04:14:44.521Z,1022.40
2017-12-06T04:15:45.117Z,1022.37
2017-12-06T04:16:45.720Z,1022.33
2017-12-06T04:17:46.321Z,1022.34
2017-12-06T04:18:46.910Z,1022.36
2017-12-06T04:19:47.504Z,1022.31
2017-12-06T04:20:48.102Z,1022.30
2017-12-06T04:21:48.701Z,1022.29
2017-12-06T04:22:49.292Z,1022.28
2017-12-06T04:23:49.892Z,1022.27
2017-12-06T04:24:50.568Z,1022.30
2017-12-06T04:25:51.099Z,1022.31
2017-12-06T04:26:51.699Z,1022.30
2017-12-06T04:27:52.317Z,1022.29
2017-12-06T04:28:52.931Z,1022.27
2017-12-06T04:29:53.540Z,1022.24
2017-12-06T04:30:54.138Z,1022.24
2017-12-06T04:31:54.737Z,1022.22
2017-12-06T04:32:55.334Z,1022.25
2017-12-06T04:33:55.944Z,1022.24
2017-12-06T04:34:56.536Z,1022.28
2017-12-06T04:35:57.153Z,1022.26
2017-12-06T04:36:57.735Z,1022.26
2017-12-06T04:37:58.344Z,1022.28
2017-12-06T04:38:58.958Z,1022.22
2017-12-06T04:39:59.559Z,1022.24
2017-12-06T04:41:00.161Z,1022.26
2017-12-06T04:42:00.762Z,1022.22
2017-12-06T04:43:01.368Z,1022.23
2017-12-06T04:44:01.972Z,1022.24
2017-12-06T04:45:02.609Z,1022.24
2017-12-06T04:46:03.168Z,1022.22
2017-12-06T04:47:03.766Z,1022.25
2017-12-06T04:48:04.361Z,1022.22
2017-12-06T04:49:04.974Z,1022.27
2017-12-06T04:50:05.571Z,1022.28
2017-12-06T04:51:06.187Z,1022.21
2017-12-06T04:52:06.779Z,1022.27
2017-12-06T04:53:07.375Z,1022.24
2017-12-06T04:54:07.970Z,1022.28
2017-12-06T04:55:08.570Z,1022.27
2017-12-06T04:56:09.181Z,1022.26
2017-12-06T04:57:09.790Z,1022.24
2017-12-06T04:58:10.382Z,1022.22
2017-12-06T04:59:10.989Z,1022.23
2017-12-06T05:00:11.605Z,1022.23
2017-12-06T05:01:12.210Z,1022.25
2017-12-06T05:02:12.814Z,1022.22
2017-12-06T05:03:13.410Z,1022.20
2017-12-06T05:04:14.016Z,1022.23
2017-12-06T05:05:14.624Z,1022.18
2017-12-06T05:06:15.226Z,1022.14
2017-12-06T05:07:15.829Z,1022.16
2017-12-06T05:08:16.438Z,1022.16
2017-12-06T05:09:17.033Z,1022.16
2017-12-06T05:10:17.630Z,1022.16
2017-12-06T05:11:18.229Z,1022.15
2017-12-06T05:12:18.838Z,1022.11
2017-12-06T05:13:19.444Z,1022.13
2017-12-06T05:14:20.087Z,1022.09
2017-12-06T05:15:20.661Z,1022.03
2017-12-06T05:16:21.246Z,1022.09
2017-12-06T05:17:21.838Z,1022.08
2017-12-06T05:18:22.442Z,1022.10
2017-12-06T05:19:23.045Z,1022.04
2017-12-06T05:20:23.642Z,1022.03
2017-12-06T05:21:24.260Z,1022.03
2017-12-06T05:22:24.844Z,1022.04
2017-12-06T05:23:25.441Z,1022.02
2017-12-06T05:24:26.040Z,1022.01
2017-12-06T05:25:26.631Z,1022.02
2017-12-06T05:26:27.229Z,1022.10
2017-12-06T05:27:27.837Z,1022.07
2017-12-06T05:28:28.438Z,1022.02
2017-12-06T05:29:29.034Z,1022.00
2017-12-06T05:30:29.647Z,1022.01
2017-12-06T05:31:30.254Z,1021.94
2017-12-06T05:32:30.859Z,1021.97
2017-12-06T05:33:31.465Z,1021.97
2017-12-06T05:34:32.070Z,1021.91
2017-12-06T05:35:32.673Z,1021.98
2017-12-06T05:36:33.270Z,1021.94
2017-12-06T05:37:33.866Z,1021.94
2017-12-06T05:38:34.482Z,1021.92
2017-12-06T05:39:35.074Z,1021.89
2017-12-06T05:40:35.681Z,1021.92
2017-12-06T05:41:36.284Z,1021.92
2017-12-06T05:42:36.894Z,1021.94
2017-12-06T05:43:37.504Z,1021.90
2017-12-06T05:44:38.230Z,1021.85
2017-12-06T05:45:38.737Z,1021.84
2017-12-06T05:46:39.349Z,1021.83
2017-12-06T05:47:39.946Z,1021.78
2017-12-06T05:48:40.560Z,1021.76
2017-12-06T05:49:41.170Z,1021.75
2017-12-06T05:50:41.780Z,1021.69
2017-12-06T05:51:42.376Z,1021.72
2017-12-06T05:52:42.986Z,1021.74
2017-12-06T05:53:43.593Z,1021.74
2017-12-06T05:54:44.189Z,1021.74
2017-12-06T05:55:44.794Z,1021.74
2017-12-06T05:56:45.399Z,1021.79
2017-12-06T05:57:46.015Z,1021.73
2017-12-06T05:58:46.617Z,1021.75
2017-12-06T05:59:47.218Z,1021.73
2017-12-06T06:00:47.822Z,1021.73
2017-12-06T06:01:48.412Z,1021.70
2017-12-06T06:02:49.014Z,1021.69
2017-12-06T06:03:49.607Z,1021.70
2017-12-06T06:04:50.200Z,1021.69
2017-12-06T06:05:50.797Z,1021.73
2017-12-06T06:06:51.391Z,1021.74
2017-12-06T06:07:52.007Z,1021.69
2017-12-06T06:08:52.637Z,1021.70
2017-12-06T06:09:53.214Z,1021.65
2017-12-06T06:10:53.811Z,1021.72
2017-12-06T06:11:54.417Z,1021.70
2017-12-06T06:12:55.023Z,1021.73
2017-12-06T06:13:55.638Z,1021.73
2017-12-06T06:14:56.242Z,1021.72
2017-12-06T06:15:56.891Z,1021.73
2017-12-06T06:16:57.541Z,1021.70
2017-12-06T06:17:58.086Z,1021.78
2017-12-06T06:18:58.690Z,1021.76
2017-12-06T06:19:59.298Z,1021.77
2017-12-06T06:20:59.908Z,1021.80
2017-12-06T06:22:00.520Z,1021.78
2017-12-06T06:23:01.126Z,1021.73
2017-12-06T06:24:01.729Z,1021.74
2017-12-06T06:25:02.339Z,1021.80
2017-12-06T06:26:02.933Z,1021.76
2017-12-06T06:27:03.535Z,1021.80
2017-12-06T06:28:04.138Z,1021.73
2017-12-06T06:29:04.729Z,1021.75
2017-12-06T06:30:05.333Z,1021.76
2017-12-06T06:31:05.924Z,1021.70
2017-12-06T06:32:06.516Z,1021.68
2017-12-06T06:33:07.105Z,1021.67
2017-12-06T06:34:07.714Z,1021.65
2017-12-06T06:35:08.319Z,1021.66
2017-12-06T06:36:08.923Z,1021.64
2017-12-06T06:37:09.530Z,1021.68
2017-12-06T06:38:10.123Z,1021.64
2017-12-06T06:39:10.731Z,1021.67
2017-12-06T06:40:11.341Z,1021.65
2017-12-06T06:41:11.939Z,1021.66
2017-12-06T06:42:12.547Z,1021.65
2017-12-06T06:43:13.152Z,1021.64
2017-12-06T06:44:13.766Z,1021.61
2017-12-06T06:45:14.374Z,1021.63
2017-12-06T06:46:14.985Z,1021.64
2017-12-06T06:47:15.596Z,1021.64
2017-12-06T06:48:16.191Z,1021.69
2017-12-06T06:49:16.809Z,1021.66
2017-12-06T06:50:17.410Z,1021.70
2017-12-06T06:51:18.015Z,1021.66
2017-12-06T06:52:18.605Z,1021.65
2017-12-06T06:53:19.196Z,1021.62
2017-12-06T06:54:19.808Z,1021.63
2017-12-06T06:55:20.411Z,1021.64
2017-12-06T06:56:21.002Z,1021.64
2017-12-06T06:57:21.598Z,1021.63
2017-12-06T06:58:22.210Z,1021.64
2017-12-06T06:59:22.822Z,1021.64
2017-12-06T07:00:23.446Z,1021.68
2017-12-06T07:01:24.049Z,1021.64
2017-12-06T07:02:24.643Z,1021.59
2017-12-06T07:03:25.233Z,1021.65
2017-12-06T07:04:25.839Z,1021.64
2017-12-06T07:05:26.458Z,1021.72
2017-12-06T07:06:27.054Z,1021.68
2017-12-06T07:07:27.716Z,1021.66
2017-12-06T07:08:28.329Z,1021.73
2017-12-06T07:09:28.925Z,1021.73
2017-12-06T07:10:29.542Z,1021.75
2017-12-06T07:11:30.155Z,1021.73
2017-12-06T07:12:30.763Z,1021.72
2017-12-06T07:13:31.372Z,1021.67
2017-12-06T07:14:31.987Z,1021.73
2017-12-06T07:15:32.579Z,1021.67
2017-12-06T07:16:33.183Z,1021.69
2017-12-06T07:17:33.800Z,1021.70
2017-12-06T07:18:34.421Z,1021.69
2017-12-06T07:19:35.031Z,1021.72
2017-12-06T07:20:35.643Z,1021.64
2017-12-06T07:21:36.261Z,1021.70
2017-12-06T07:22:36.874Z,1021.56
2017-12-06T07:23:37.491Z,1021.65
2017-12-06T07:24:38.089Z,1021.66
2017-12-06T07:25:38.705Z,1021.66
2017-12-06T07:26:39.317Z,1021.67
2017-12-06T07:27:39.922Z,1021.61
2017-12-06T07:28:40.535Z,1021.63
2017-12-06T07:29:41.133Z,1021.59
2017-12-06T07:30:41.734Z,1021.64
2017-12-06T07:31:42.337Z,1021.63
2017-12-06T07:32:42.938Z,1021.67
2017-12-06T07:33:43.550Z,1021.61
2017-12-06T07:34:44.179Z,1021.67
2017-12-06T07:35:44.749Z,1021.67
2017-12-06T07:36:45.355Z,1021.68
2017-12-06T07:37:45.963Z,1021.56
2017-12-06T07:38:46.565Z,1021.62
2017-12-06T07:39:47.169Z,1021.61
2017-12-06T07:40:47.779Z,1021.61
2017-12-06T07:41:48.392Z,1021.64
2017-12-06T07:42:49.013Z,1021.68
2017-12-06T07:43:49.644Z,1021.61
2017-12-06T07:44:50.244Z,1021.62
2017-12-06T07:45:50.860Z,1021.67
2017-12-06T07:46:51.470Z,1021.60
2017-12-06T07:47:52.072Z,1021.61
2017-12-06T07:48:52.687Z,1021.60
2017-12-06T07:49:53.292Z,1021.69
2017-12-06T07:50:53.931Z,1021.61
2017-12-06T07:51:54.495Z,1021.62
2017-12-06T07:52:55.113Z,1021.66
2017-12-06T07:53:55.710Z,1021.59
2017-12-06T07:54:56.320Z,1021.60
2017-12-06T07:55:56.930Z,1021.63
2017-12-06T07:56:57.543Z,1021.64
2017-12-06T07:57:58.154Z,1021.64
2017-12-06T07:58:58.754Z,1021.60
2017-12-06T07:59:59.364Z,1021.64
2017-12-06T08:00:59.965Z,1021.58
2017-12-06T08:02:00.576Z,1021.61
2017-12-06T08:03:01.187Z,1021.61
2017-12-06T08:04:01.794Z,1021.62
2017-12-06T08:05:02.398Z,1021.64
2017-12-06T08:06:03.015Z,1021.59
2017-12-06T08:07:03.619Z,1021.64
2017-12-06T08:08:04.222Z,1021.61
2017-12-06T08:10:20.340Z,1021.60
2017-12-06T08:11:20.940Z,1021.59
2017-12-06T08:12:21.534Z,1021.60
2017-12-06T08:13:22.158Z,1021.60
2017-12-06T08:14:22.775Z,1021.61
2017-12-06T08:15:23.394Z,1021.63
2017-12-06T08:16:24.010Z,1021.68
2017-12-06T08:17:24.635Z,1021.66
2017-12-06T08:18:25.238Z,1021.73
2017-12-06T08:19:25.852Z,1021.69
2017-12-06T08:20:26.454Z,1021.69
2017-12-06T08:21:27.067Z,1021.65
2017-12-06T08:22:27.674Z,1021.64
2017-12-06T08:23:28.302Z,1021.71
2017-12-06T08:24:28.918Z,1021.69
2017-12-06T08:25:29.533Z,1021.62
2017-12-06T08:26:30.158Z,1021.72
2017-12-06T08:27:30.755Z,1021.73
2017-12-06T08:28:31.372Z,1021.76
2017-12-06T08:29:32.000Z,1021.73
2017-12-06T08:30:32.622Z,1021.73
2017-12-06T08:31:33.240Z,1021.75
2017-12-06T08:32:33.850Z,1021.75
2017-12-06T08:33:34.470Z,1021.77
2017-12-06T08:34:35.082Z,1021.70
2017-12-06T08:35:35.692Z,1021.78
2017-12-06T08:36:36.309Z,1021.74
2017-12-06T08:37:36.910Z,1021.76
2017-12-06T08:38:37.513Z,1021.76
2017-12-06T08:39:38.121Z,1021.74
2017-12-06T08:40:38.727Z,1021.75
2017-12-06T08:41:39.353Z,1021.76
2017-12-06T08:42:39.969Z,1021.72
2017-12-06T08:43:40.575Z,1021.75
2017-12-06T08:44:41.176Z,1021.73
2017-12-06T08:45:41.803Z,1021.69
2017-12-06T08:46:42.417Z,1021.73
2017-12-06T08:47:43.023Z,1021.72
2017-12-06T08:48:43.625Z,1021.72
2017-12-06T08:49:44.243Z,1021.74
2017-12-06T08:50:44.858Z,1021.76
2017-12-06T08:51:45.456Z,1021.69
2017-12-06T08:52:46.090Z,1021.75
2017-12-06T08:53:46.712Z,1021.76
2017-12-06T08:54:47.319Z,1021.73
2017-12-06T08:55:47.951Z,1021.74
2017-12-06T08:56:48.583Z,1021.76
2017-12-06T08:57:49.205Z,1021.73
2017-12-06T08:58:49.812Z,1021.75
2017-12-06T08:59:50.429Z,1021.75
2017-12-06T09:00:51.038Z,1021.70
2017-12-06T09:01:51.667Z,1021.77
2017-12-06T09:02:52.300Z,1021.74
2017-12-06T09:03:52.909Z,1021.73
2017-12-06T09:04:53.535Z,1021.74
2017-12-06T09:05:54.161Z,1021.76
2017-12-06T09:06:54.975Z,1021.77
2017-12-06T09:07:55.604Z,1021.78
2017-12-06T09:08:56.232Z,1021.73
2017-12-06T09:09:56.870Z,1021.77
2017-12-06T09:10:57.494Z,1021.77
2017-12-06T09:11:58.098Z,1021.74
2017-12-06T09:12:58.707Z,1021.74
2017-12-06T09:13:59.344Z,1021.74
2017-12-06T09:14:59.975Z,1021.70
2017-12-06T09:16:00.587Z,1021.69
2017-12-06T09:17:01.190Z,1021.68
2017-12-06T09:18:01.797Z,1021.69
2017-12-06T09:19:02.419Z,1021.76
2017-12-06T09:20:03.041Z,1021.70
2017-12-06T09:21:03.662Z,1021.74
2017-12-06T09:22:04.289Z,1021.75
2017-12-06T09:23:04.925Z,1021.70
2017-12-06T09:24:05.555Z,1021.75
2017-12-06T09:25:06.184Z,1021.71
2017-12-06T09:26:07.002Z,1021.78
2017-12-06T09:27:07.634Z,1021.76
2017-12-06T09:28:08.244Z,1021.72
2017-12-06T09:29:08.874Z,1021.78
2017-12-06T09:30:09.504Z,1021.79
2017-12-06T09:31:10.140Z,1021.72
2017-12-06T09:32:10.775Z,1021.70
2017-12-06T09:33:11.412Z,1021.69
2017-12-06T09:34:12.017Z,1021.69
2017-12-06T09:35:13.048Z,1021.62
2017-12-06T09:36:13.874Z,1021.64
2017-12-06T09:37:14.487Z,1021.67
2017-12-06T09:38:15.250Z,1021.67
2017-12-06T09:39:16.098Z,1021.64
2017-12-06T09:40:16.716Z,1021.61
2017-12-06T09:41:17.476Z,1021.63
2017-12-06T09:42:18.238Z,1021.67
2017-12-06T09:43:18.838Z,1021.68
2017-12-06T09:44:19.450Z,1021.68
2017-12-06T09:45:20.082Z,1021.65
2017-12-06T09:46:20.889Z,1021.67
2017-12-06T09:47:21.501Z,1021.65
2017-12-06T09:48:22.141Z,1021.66
2017-12-06T09:49:22.895Z,1021.62
2017-12-06T09:50:23.535Z,1021.68
2017-12-06T09:51:24.371Z,1021.70
2017-12-06T09:52:24.996Z,1021.67
2017-12-06T09:53:25.803Z,1021.72
2017-12-06T09:54:26.437Z,1021.66
2017-12-06T09:55:27.065Z,1021.68
2017-12-06T09:56:27.812Z,1021.70
2017-12-06T09:57:28.661Z,1021.71
2017-12-06T09:58:29.309Z,1021.65
2017-12-06T09:59:29.930Z,1021.71
2017-12-06T10:00:31.967Z,1021.67
2017-12-06T10:01:32.577Z,1021.68
2017-12-06T10:02:33.200Z,1021.73
2017-12-06T10:03:33.822Z,1021.73
2017-12-06T10:04:34.453Z,1021.74
2017-12-06T10:05:35.060Z,1021.72
2017-12-06T10:06:35.686Z,1021.67
2017-12-06T10:07:36.492Z,1021.69
2017-12-06T10:08:37.122Z,1021.67
2017-12-06T10:09:37.752Z,1021.67
2017-12-06T10:10:38.591Z,1021.69
2017-12-06T10:11:39.230Z,1021.71
2017-12-06T10:12:40.045Z,1021.65
2017-12-06T10:13:40.854Z,1021.65
2017-12-06T10:14:41.486Z,1021.65
2017-12-06T10:15:42.125Z,1021.64
2017-12-06T10:16:42.753Z,1021.70
2017-12-06T10:17:43.441Z,1021.62
2017-12-06T10:18:44.070Z,1021.63
2017-12-06T10:19:44.685Z,1021.61
2017-12-06T10:20:45.323Z,1021.61
2017-12-06T10:21:45.952Z,1021.62
2017-12-06T10:22:46.786Z,1021.62
2017-12-06T10:23:47.394Z,1021.53
2017-12-06T10:24:48.154Z,1021.58
2017-12-06T10:25:48.776Z,1021.56
2017-12-06T10:26:49.400Z,1021.56
2017-12-06T10:27:50.057Z,1021.50
2017-12-06T10:28:50.886Z,1021.55
2017-12-06T10:29:51.519Z,1021.54
2017-12-06T10:30:52.161Z,1021.46
2017-12-06T10:31:52.765Z,1021.50
2017-12-06T10:32:53.394Z,1021.48
2017-12-06T10:33:54.005Z,1021.49
2017-12-06T10:34:54.832Z,1021.43
2017-12-06T10:35:55.447Z,1021.45
2017-12-06T10:36:56.050Z,1021.40
2017-12-06T10:37:56.673Z,1021.38
2017-12-06T10:38:57.299Z,1021.36
2017-12-06T10:39:57.913Z,1021.38
2017-12-06T10:40:58.527Z,1021.38
2017-12-06T10:41:59.331Z,1021.39
2017-12-06T10:43:00.957Z,1021.43
2017-12-06T10:44:01.586Z,1021.39
2017-12-06T10:45:02.218Z,1021.38
2017-12-06T10:46:02.852Z,1021.38
2017-12-06T10:47:03.681Z,1021.36
2017-12-06T10:48:04.302Z,1021.38
2017-12-06T10:49:04.935Z,1021.36
2017-12-06T10:50:05.566Z,1021.33
2017-12-06T10:51:06.205Z,1021.34
2017-12-06T10:52:06.837Z,1021.34
2017-12-06T10:53:07.466Z,1021.29
2017-12-06T10:54:08.104Z,1021.32
2017-12-06T10:55:08.739Z,1021.31
2017-12-06T10:56:09.368Z,1021.31
2017-12-06T10:57:10.183Z,1021.30
2017-12-06T10:58:10.793Z,1021.26
2017-12-06T10:59:11.617Z,1021.25
2017-12-06T11:00:12.259Z,1021.21
2017-12-06T11:01:12.944Z,1021.20
2017-12-06T11:02:13.507Z,1021.15
2017-12-06T11:03:14.370Z,1021.19
2017-12-06T11:04:15.181Z,1021.18
2017-12-06T11:05:15.969Z,1021.18
2017-12-06T11:06:16.819Z,1021.14
2017-12-06T11:07:17.594Z,1021.20
2017-12-06T11:08:18.206Z,1021.17
2017-12-06T11:09:19.041Z,1021.10
2017-12-06T11:10:19.673Z,1021.10
2017-12-06T11:11:20.303Z,1021.08
2017-12-06T11:12:20.928Z,1021.05
2017-12-06T11:13:21.540Z,1021.02
2017-12-06T11:14:22.500Z,1021.04
2017-12-06T11:15:23.135Z,1020.96
2017-12-06T11:16:23.787Z,1020.95
2017-12-06T11:17:24.554Z,1021.00
2017-12-06T11:18:25.180Z,1020.97
2017-12-06T11:19:25.801Z,1020.96
2017-12-06T11:20:26.435Z,1020.94
2017-12-06T11:21:27.311Z,1020.96
2017-12-06T11:22:27.930Z,1020.96
2017-12-06T11:23:28.561Z,1020.92
2017-12-06T11:24:29.187Z,1020.90
2017-12-06T11:25:30.028Z,1020.89
2017-12-06T11:26:30.640Z,1020.91
2017-12-06T11:27:31.269Z,1020.91
2017-12-06T11:28:31.896Z,1020.92
2017-12-06T11:29:32.530Z,1020.87
2017-12-06T11:30:33.159Z,1020.93
2017-12-06T11:31:33.785Z,1020.90
2017-12-06T11:32:34.646Z,1020.87
2017-12-06T11:33:35.288Z,1020.89
2017-12-06T11:34:36.102Z,1020.83
2017-12-06T11:35:36.731Z,1020.86
2017-12-06T11:36:37.566Z,1020.84
2017-12-06T11:37:38.605Z,1020.90
2017-12-06T11:38:39.650Z,1020.86
2017-12-06T11:39:40.414Z,1020.80
2017-12-06T11:40:41.458Z,1020.87
2017-12-06T11:41:42.387Z,1020.84
2017-12-06T11:42:43.013Z,1020.82
2017-12-06T11:43:43.846Z,1020.80
2017-12-06T11:44:44.684Z,1020.82
2017-12-06T11:45:45.312Z,1020.83
2017-12-06T11:46:46.145Z,1020.78
2017-12-06T11:47:46.759Z,1020.80
2017-12-06T11:48:47.396Z,1020.84
2017-12-06T11:49:48.006Z,1020.82
2017-12-06T11:50:48.861Z,1020.76
2017-12-06T11:51:49.496Z,1020.75
2017-12-06T11:52:50.133Z,1020.80
2017-12-06T11:53:50.784Z,1020.80
2017-12-06T11:54:51.427Z,1020.81
2017-12-06T11:55:52.043Z,1020.75
2017-12-06T11:56:52.694Z,1020.77
2017-12-06T11:57:53.303Z,1020.78
2017-12-06T11:58:53.946Z,1020.76
2017-12-06T11:59:54.788Z,1020.76
2017-12-06T12:00:55.434Z,1020.73
2017-12-06T12:01:56.082Z,1020.76
2017-12-06T12:02:56.908Z,1020.74
2017-12-06T12:03:57.743Z,1020.72
2017-12-06T12:04:58.563Z,1020.71
2017-12-06T12:05:59.394Z,1020.71
2017-12-06T12:07:00.034Z,1020.61
2017-12-06T12:08:00.664Z,1020.64
2017-12-06T12:09:01.279Z,1020.64
2017-12-06T12:10:02.066Z,1020.66
2017-12-06T12:11:03.125Z,1020.64
2017-12-06T12:12:03.755Z,1020.63
2017-12-06T12:13:04.391Z,1020.62
2017-12-06T12:14:05.228Z,1020.63
2017-12-06T12:15:05.853Z,1020.62